sensor_id;sensor_type;location;lat;lon;timestamp;temperature;humidity
14415;DHT22;7307;50.852;4.314;2022-07-22T00:02:59;25.80;51.80
14415;DHT22;7307;50.852;4.314;2022-07-22T00:05:25;25.80;51.90
14415;DHT22;7307;50.852;4.314;2022-07-22T00:07:50;25.70;51.90
14415;DHT22;7307;50.852;4.314;2022-07-22T00:10:16;25.70;52.00
14415;DHT22;7307;50.852;4.314;2022-07-22T00:12:41;25.60;52.00
14415;DHT22;7307;50.852;4.314;2022-07-22T00:15:08;25.60;52.20
14415;DHT22;7307;50.852;4.314;2022-07-22T00:17:34;25.60;52.20
14415;DHT22;7307;50.852;4.314;2022-07-22T00:20:02;25.50;52.20
14415;DHT22;7307;50.852;4.314;2022-07-22T00:22:27;25.50;52.30
14415;DHT22;7307;50.852;4.314;2022-07-22T00:24:53;25.50;52.30
14415;DHT22;7307;50.852;4.314;2022-07-22T00:27:19;25.40;52.40
14415;DHT22;7307;50.852;4.314;2022-07-22T00:29:44;25.40;52.50
14415;DHT22;7307;50.852;4.314;2022-07-22T00:32:10;25.40;52.60
14415;DHT22;7307;50.852;4.314;2022-07-22T00:34:35;25.30;52.60
14415;DHT22;7307;50.852;4.314;2022-07-22T00:37:01;25.30;52.60
14415;DHT22;7307;50.852;4.314;2022-07-22T00:39:26;25.30;52.60
14415;DHT22;7307;50.852;4.314;2022-07-22T00:41:52;25.20;52.70
14415;DHT22;7307;50.852;4.314;2022-07-22T00:44:18;25.20;52.70
14415;DHT22;7307;50.852;4.314;2022-07-22T00:46:43;25.20;52.70
14415;DHT22;7307;50.852;4.314;2022-07-22T00:49:09;25.20;52.80
14415;DHT22;7307;50.852;4.314;2022-07-22T00:51:36;25.20;52.90
14415;DHT22;7307;50.852;4.314;2022-07-22T00:54:05;25.10;52.90
14415;DHT22;7307;50.852;4.314;2022-07-22T00:56:31;25.10;52.90
14415;DHT22;7307;50.852;4.314;2022-07-22T00:58:59;25.10;52.90
14415;DHT22;7307;50.852;4.314;2022-07-22T01:01:26;25.10;53.00
14415;DHT22;7307;50.852;4.314;2022-07-22T01:03:52;25.10;53.00
14415;DHT22;7307;50.852;4.314;2022-07-22T01:06:18;25.00;53.70
14415;DHT22;7307;50.852;4.314;2022-07-22T01:08:43;25.00;53.00
14415;DHT22;7307;50.852;4.314;2022-07-22T01:11:12;25.00;53.10
14415;DHT22;7307;50.852;4.314;2022-07-22T01:13:39;24.90;53.10
14415;DHT22;7307;50.852;4.314;2022-07-22T01:16:06;24.90;53.10
14415;DHT22;7307;50.852;4.314;2022-07-22T01:18:32;24.90;53.10
14415;DHT22;7307;50.852;4.314;2022-07-22T01:20:58;24.90;53.20
14415;DHT22;7307;50.852;4.314;2022-07-22T01:23:24;24.90;53.20
14415;DHT22;7307;50.852;4.314;2022-07-22T01:25:50;24.90;53.30
14415;DHT22;7307;50.852;4.314;2022-07-22T01:28:15;24.90;53.30
14415;DHT22;7307;50.852;4.314;2022-07-22T01:30:41;24.80;53.30
14415;DHT22;7307;50.852;4.314;2022-07-22T01:33:07;24.80;53.30
14415;DHT22;7307;50.852;4.314;2022-07-22T01:35:32;24.80;53.40
14415;DHT22;7307;50.852;4.314;2022-07-22T01:37:58;24.80;53.40
14415;DHT22;7307;50.852;4.314;2022-07-22T01:40:24;24.80;53.50
14415;DHT22;7307;50.852;4.314;2022-07-22T01:42:49;24.80;53.50
14415;DHT22;7307;50.852;4.314;2022-07-22T01:45:15;24.70;53.50
14415;DHT22;7307;50.852;4.314;2022-07-22T01:47:41;24.70;53.60
14415;DHT22;7307;50.852;4.314;2022-07-22T01:50:09;24.70;53.60
14415;DHT22;7307;50.852;4.314;2022-07-22T01:52:35;24.70;53.60
14415;DHT22;7307;50.852;4.314;2022-07-22T01:55:02;24.70;53.70
14415;DHT22;7307;50.852;4.314;2022-07-22T01:57:28;24.70;53.60
14415;DHT22;7307;50.852;4.314;2022-07-22T01:59:53;24.60;53.60
14415;DHT22;7307;50.852;4.314;2022-07-22T02:02:19;24.60;53.70
14415;DHT22;7307;50.852;4.314;2022-07-22T02:04:45;24.60;53.70
14415;DHT22;7307;50.852;4.314;2022-07-22T02:07:11;24.60;53.70
14415;DHT22;7307;50.852;4.314;2022-07-22T02:09:36;24.60;54.30
14415;DHT22;7307;50.852;4.314;2022-07-22T02:12:02;24.60;53.70
14415;DHT22;7307;50.852;4.314;2022-07-22T02:14:28;24.60;53.80
14415;DHT22;7307;50.852;4.314;2022-07-22T02:16:54;24.60;53.80
14415;DHT22;7307;50.852;4.314;2022-07-22T02:19:20;24.50;53.70
14415;DHT22;7307;50.852;4.314;2022-07-22T02:21:45;24.60;53.80
14415;DHT22;7307;50.852;4.314;2022-07-22T02:24:11;24.50;53.70
14415;DHT22;7307;50.852;4.314;2022-07-22T02:26:37;24.50;53.80
14415;DHT22;7307;50.852;4.314;2022-07-22T02:29:03;24.50;53.80
14415;DHT22;7307;50.852;4.314;2022-07-22T02:31:28;24.50;53.80
14415;DHT22;7307;50.852;4.314;2022-07-22T02:33:54;24.50;53.80
14415;DHT22;7307;50.852;4.314;2022-07-22T02:36:20;24.40;53.70
14415;DHT22;7307;50.852;4.314;2022-07-22T02:38:46;24.40;53.70
14415;DHT22;7307;50.852;4.314;2022-07-22T02:41:11;24.40;53.80
14415;DHT22;7307;50.852;4.314;2022-07-22T02:43:37;24.40;53.80
14415;DHT22;7307;50.852;4.314;2022-07-22T02:46:03;24.40;53.80
14415;DHT22;7307;50.852;4.314;2022-07-22T02:48:28;24.40;53.80
14415;DHT22;7307;50.852;4.314;2022-07-22T02:50:54;24.40;53.80
14415;DHT22;7307;50.852;4.314;2022-07-22T02:53:20;24.40;53.80
14415;DHT22;7307;50.852;4.314;2022-07-22T02:55:45;24.40;53.80
14415;DHT22;7307;50.852;4.314;2022-07-22T02:58:11;24.40;53.80
14415;DHT22;7307;50.852;4.314;2022-07-22T03:00:37;24.40;53.80
14415;DHT22;7307;50.852;4.314;2022-07-22T03:03:05;24.30;53.80
14415;DHT22;7307;50.852;4.314;2022-07-22T03:05:32;24.40;53.80
14415;DHT22;7307;50.852;4.314;2022-07-22T03:07:57;24.30;53.70
14415;DHT22;7307;50.852;4.314;2022-07-22T03:10:23;24.30;53.70
14415;DHT22;7307;50.852;4.314;2022-07-22T03:12:48;24.30;53.70
14415;DHT22;7307;50.852;4.314;2022-07-22T03:15:14;24.30;54.30
14415;DHT22;7307;50.852;4.314;2022-07-22T03:17:40;24.30;53.80
14415;DHT22;7307;50.852;4.314;2022-07-22T03:20:07;24.30;53.80
14415;DHT22;7307;50.852;4.314;2022-07-22T03:22:34;24.30;53.80
14415;DHT22;7307;50.852;4.314;2022-07-22T03:25:00;24.30;53.80
14415;DHT22;7307;50.852;4.314;2022-07-22T03:27:26;24.30;53.80
14415;DHT22;7307;50.852;4.314;2022-07-22T03:29:52;24.20;53.80
14415;DHT22;7307;50.852;4.314;2022-07-22T03:32:17;24.20;53.80
14415;DHT22;7307;50.852;4.314;2022-07-22T03:34:43;24.20;53.80
14415;DHT22;7307;50.852;4.314;2022-07-22T03:37:09;24.20;53.90
14415;DHT22;7307;50.852;4.314;2022-07-22T03:39:35;24.20;54.00
14415;DHT22;7307;50.852;4.314;2022-07-22T03:42:00;24.20;54.00
14415;DHT22;7307;50.852;4.314;2022-07-22T03:44:26;24.20;54.00
14415;DHT22;7307;50.852;4.314;2022-07-22T03:46:52;24.20;54.00
14415;DHT22;7307;50.852;4.314;2022-07-22T03:49:17;24.20;54.10
14415;DHT22;7307;50.852;4.314;2022-07-22T03:51:43;24.20;54.20
14415;DHT22;7307;50.852;4.314;2022-07-22T03:54:09;24.20;54.20
14415;DHT22;7307;50.852;4.314;2022-07-22T03:56:34;24.10;54.20
14415;DHT22;7307;50.852;4.314;2022-07-22T03:59:00;24.10;54.20
14415;DHT22;7307;50.852;4.314;2022-07-22T04:01:26;24.10;54.20
14415;DHT22;7307;50.852;4.314;2022-07-22T04:03:52;24.10;54.30
14415;DHT22;7307;50.852;4.314;2022-07-22T04:06:17;24.10;54.30
14415;DHT22;7307;50.852;4.314;2022-07-22T04:08:43;24.10;54.30
14415;DHT22;7307;50.852;4.314;2022-07-22T04:11:09;24.10;54.40
14415;DHT22;7307;50.852;4.314;2022-07-22T04:13:34;24.10;54.40
14415;DHT22;7307;50.852;4.314;2022-07-22T04:16:00;24.10;54.40
14415;DHT22;7307;50.852;4.314;2022-07-22T04:18:26;24.10;54.40
14415;DHT22;7307;50.852;4.314;2022-07-22T04:20:51;24.00;54.30
14415;DHT22;7307;50.852;4.314;2022-07-22T04:23:17;24.00;54.40
14415;DHT22;7307;50.852;4.314;2022-07-22T04:25:43;24.10;54.50
14415;DHT22;7307;50.852;4.314;2022-07-22T04:28:09;24.00;54.40
14415;DHT22;7307;50.852;4.314;2022-07-22T04:30:35;24.00;54.50
14415;DHT22;7307;50.852;4.314;2022-07-22T04:33:00;24.00;54.50
14415;DHT22;7307;50.852;4.314;2022-07-22T04:35:26;24.00;54.50
14415;DHT22;7307;50.852;4.314;2022-07-22T04:37:51;24.00;54.60
14415;DHT22;7307;50.852;4.314;2022-07-22T04:40:17;24.00;54.60
14415;DHT22;7307;50.852;4.314;2022-07-22T04:42:43;24.00;54.60
14415;DHT22;7307;50.852;4.314;2022-07-22T04:45:09;24.00;54.50
14415;DHT22;7307;50.852;4.314;2022-07-22T04:47:34;24.00;54.60
14415;DHT22;7307;50.852;4.314;2022-07-22T04:50:00;24.00;54.60
14415;DHT22;7307;50.852;4.314;2022-07-22T04:52:44;24.00;54.50
14415;DHT22;7307;50.852;4.314;2022-07-22T04:55:09;24.00;54.60
14415;DHT22;7307;50.852;4.314;2022-07-22T04:57:35;24.00;54.60
14415;DHT22;7307;50.852;4.314;2022-07-22T05:00:01;24.00;54.70
14415;DHT22;7307;50.852;4.314;2022-07-22T05:02:26;24.00;54.70
14415;DHT22;7307;50.852;4.314;2022-07-22T05:04:52;24.00;54.80
14415;DHT22;7307;50.852;4.314;2022-07-22T05:07:18;24.00;54.90
14415;DHT22;7307;50.852;4.314;2022-07-22T05:09:43;24.00;54.80
14415;DHT22;7307;50.852;4.314;2022-07-22T05:12:09;24.00;54.80
14415;DHT22;7307;50.852;4.314;2022-07-22T05:14:34;24.00;54.80
14415;DHT22;7307;50.852;4.314;2022-07-22T05:17:00;24.00;54.90
14415;DHT22;7307;50.852;4.314;2022-07-22T05:19:26;23.90;54.90
14415;DHT22;7307;50.852;4.314;2022-07-22T05:21:51;23.90;55.00
14415;DHT22;7307;50.852;4.314;2022-07-22T05:24:17;23.90;55.00
14415;DHT22;7307;50.852;4.314;2022-07-22T05:26:43;23.90;55.10
14415;DHT22;7307;50.852;4.314;2022-07-22T05:29:08;23.90;55.10
14415;DHT22;7307;50.852;4.314;2022-07-22T05:31:34;23.90;55.10
14415;DHT22;7307;50.852;4.314;2022-07-22T05:34:00;23.90;55.20
14415;DHT22;7307;50.852;4.314;2022-07-22T05:36:25;24.00;55.20
14415;DHT22;7307;50.852;4.314;2022-07-22T05:38:51;24.00;55.20
14415;DHT22;7307;50.852;4.314;2022-07-22T05:41:17;24.00;55.20
14415;DHT22;7307;50.852;4.314;2022-07-22T05:43:42;24.00;55.20
14415;DHT22;7307;50.852;4.314;2022-07-22T05:46:08;24.00;55.40
14415;DHT22;7307;50.852;4.314;2022-07-22T05:48:34;24.00;55.50
14415;DHT22;7307;50.852;4.314;2022-07-22T05:51:00;24.00;55.50
14415;DHT22;7307;50.852;4.314;2022-07-22T05:53:25;24.00;55.60
14415;DHT22;7307;50.852;4.314;2022-07-22T05:55:51;24.00;55.60
14415;DHT22;7307;50.852;4.314;2022-07-22T05:58:17;24.00;55.60
14415;DHT22;7307;50.852;4.314;2022-07-22T06:00:42;24.00;55.60
14415;DHT22;7307;50.852;4.314;2022-07-22T06:03:08;24.00;55.70
14415;DHT22;7307;50.852;4.314;2022-07-22T06:05:34;24.00;55.70
14415;DHT22;7307;50.852;4.314;2022-07-22T06:08:03;24.00;55.80
14415;DHT22;7307;50.852;4.314;2022-07-22T06:10:29;24.00;55.80
14415;DHT22;7307;50.852;4.314;2022-07-22T06:12:55;24.00;55.90
14415;DHT22;7307;50.852;4.314;2022-07-22T06:15:20;24.00;55.80
14415;DHT22;7307;50.852;4.314;2022-07-22T06:17:46;24.00;55.70
14415;DHT22;7307;50.852;4.314;2022-07-22T06:20:11;24.00;56.10
14415;DHT22;7307;50.852;4.314;2022-07-22T06:22:39;24.00;55.50
14415;DHT22;7307;50.852;4.314;2022-07-22T06:25:05;24.00;55.50
14415;DHT22;7307;50.852;4.314;2022-07-22T06:27:31;24.00;55.60
14415;DHT22;7307;50.852;4.314;2022-07-22T06:29:57;24.00;55.60
14415;DHT22;7307;50.852;4.314;2022-07-22T06:32:22;24.00;55.60
14415;DHT22;7307;50.852;4.314;2022-07-22T06:34:48;24.00;55.50
14415;DHT22;7307;50.852;4.314;2022-07-22T06:37:13;24.00;55.40
14415;DHT22;7307;50.852;4.314;2022-07-22T06:39:39;24.00;55.40
14415;DHT22;7307;50.852;4.314;2022-07-22T06:42:05;24.00;55.40
14415;DHT22;7307;50.852;4.314;2022-07-22T06:44:31;24.00;55.20
14415;DHT22;7307;50.852;4.314;2022-07-22T06:46:56;24.00;55.20
14415;DHT22;7307;50.852;4.314;2022-07-22T06:49:22;24.00;55.10
14415;DHT22;7307;50.852;4.314;2022-07-22T06:51:47;24.10;54.90
14415;DHT22;7307;50.852;4.314;2022-07-22T06:54:13;24.00;54.70
14415;DHT22;7307;50.852;4.314;2022-07-22T06:56:39;24.10;54.60
14415;DHT22;7307;50.852;4.314;2022-07-22T06:59:04;24.00;54.40
14415;DHT22;7307;50.852;4.314;2022-07-22T07:01:30;24.10;54.50
14415;DHT22;7307;50.852;4.314;2022-07-22T07:03:56;24.10;54.50
14415;DHT22;7307;50.852;4.314;2022-07-22T07:06:21;24.10;54.50
14415;DHT22;7307;50.852;4.314;2022-07-22T07:08:47;24.10;54.50
14415;DHT22;7307;50.852;4.314;2022-07-22T07:11:13;24.10;54.40
14415;DHT22;7307;50.852;4.314;2022-07-22T07:13:39;24.10;54.30
14415;DHT22;7307;50.852;4.314;2022-07-22T07:16:05;24.10;54.20
14415;DHT22;7307;50.852;4.314;2022-07-22T07:18:30;24.10;53.90
14415;DHT22;7307;50.852;4.314;2022-07-22T07:20:56;24.10;53.80
14415;DHT22;7307;50.852;4.314;2022-07-22T07:23:22;24.10;53.80
14415;DHT22;7307;50.852;4.314;2022-07-22T07:25:48;24.10;53.60
14415;DHT22;7307;50.852;4.314;2022-07-22T07:28:13;24.10;53.20
14415;DHT22;7307;50.852;4.314;2022-07-22T07:30:39;24.10;53.00
14415;DHT22;7307;50.852;4.314;2022-07-22T07:33:05;24.10;52.80
14415;DHT22;7307;50.852;4.314;2022-07-22T07:35:30;24.10;52.70
14415;DHT22;7307;50.852;4.314;2022-07-22T07:37:56;24.10;52.40
14415;DHT22;7307;50.852;4.314;2022-07-22T07:40:22;24.10;52.60
14415;DHT22;7307;50.852;4.314;2022-07-22T07:42:47;24.20;52.60
14415;DHT22;7307;50.852;4.314;2022-07-22T07:45:13;24.10;52.30
14415;DHT22;7307;50.852;4.314;2022-07-22T07:47:39;24.10;52.30
14415;DHT22;7307;50.852;4.314;2022-07-22T07:50:06;24.20;52.10
14415;DHT22;7307;50.852;4.314;2022-07-22T07:52:37;24.20;52.10
14415;DHT22;7307;50.852;4.314;2022-07-22T07:55:04;24.20;52.20
14415;DHT22;7307;50.852;4.314;2022-07-22T07:57:30;24.20;52.30
14415;DHT22;7307;50.852;4.314;2022-07-22T07:59:56;24.20;52.30
14415;DHT22;7307;50.852;4.314;2022-07-22T08:02:22;24.20;52.10
14415;DHT22;7307;50.852;4.314;2022-07-22T08:04:47;24.20;52.00
14415;DHT22;7307;50.852;4.314;2022-07-22T08:07:13;24.30;52.00
14415;DHT22;7307;50.852;4.314;2022-07-22T08:09:38;24.30;52.10
14415;DHT22;7307;50.852;4.314;2022-07-22T08:12:05;24.30;52.00
14415;DHT22;7307;50.852;4.314;2022-07-22T08:14:31;24.30;51.80
14415;DHT22;7307;50.852;4.314;2022-07-22T08:16:57;24.30;51.90
14415;DHT22;7307;50.852;4.314;2022-07-22T08:19:23;24.30;51.90
14415;DHT22;7307;50.852;4.314;2022-07-22T08:21:49;24.30;52.00
14415;DHT22;7307;50.852;4.314;2022-07-22T08:24:15;24.30;52.20
14415;DHT22;7307;50.852;4.314;2022-07-22T08:26:41;24.30;52.30
14415;DHT22;7307;50.852;4.314;2022-07-22T08:29:06;24.40;52.40
14415;DHT22;7307;50.852;4.314;2022-07-22T08:31:35;24.40;52.40
14415;DHT22;7307;50.852;4.314;2022-07-22T08:34:05;24.40;52.40
14415;DHT22;7307;50.852;4.314;2022-07-22T08:36:30;24.40;52.40
14415;DHT22;7307;50.852;4.314;2022-07-22T08:38:56;24.40;52.40
14415;DHT22;7307;50.852;4.314;2022-07-22T08:41:24;24.50;52.40
14415;DHT22;7307;50.852;4.314;2022-07-22T08:43:52;24.50;53.10
14415;DHT22;7307;50.852;4.314;2022-07-22T08:46:18;24.50;52.50
14415;DHT22;7307;50.852;4.314;2022-07-22T08:48:44;24.50;52.40
14415;DHT22;7307;50.852;4.314;2022-07-22T08:51:11;24.60;52.40
14415;DHT22;7307;50.852;4.314;2022-07-22T08:53:37;24.60;52.50
14415;DHT22;7307;50.852;4.314;2022-07-22T08:56:02;24.60;52.50
14415;DHT22;7307;50.852;4.314;2022-07-22T08:58:28;24.60;52.50
14415;DHT22;7307;50.852;4.314;2022-07-22T09:01:12;24.60;52.50
14415;DHT22;7307;50.852;4.314;2022-07-22T09:03:49;24.60;52.50
14415;DHT22;7307;50.852;4.314;2022-07-22T09:06:20;24.60;52.40
14415;DHT22;7307;50.852;4.314;2022-07-22T09:08:58;24.70;52.40
14415;DHT22;7307;50.852;4.314;2022-07-22T09:11:28;24.70;52.50
14415;DHT22;7307;50.852;4.314;2022-07-22T09:13:55;24.70;52.50
14415;DHT22;7307;50.852;4.314;2022-07-22T09:16:44;24.70;52.50
14415;DHT22;7307;50.852;4.314;2022-07-22T09:19:11;24.70;52.50
14415;DHT22;7307;50.852;4.314;2022-07-22T09:21:42;24.70;52.50
14415;DHT22;7307;50.852;4.314;2022-07-22T09:24:29;24.80;52.50
14415;DHT22;7307;50.852;4.314;2022-07-22T09:26:55;24.80;52.50
14415;DHT22;7307;50.852;4.314;2022-07-22T09:29:21;24.80;52.60
14415;DHT22;7307;50.852;4.314;2022-07-22T09:31:51;24.80;52.50
14415;DHT22;7307;50.852;4.314;2022-07-22T09:34:31;24.80;52.50
14415;DHT22;7307;50.852;4.314;2022-07-22T09:37:00;24.90;52.60
14415;DHT22;7307;50.852;4.314;2022-07-22T09:39:31;24.90;52.50
14415;DHT22;7307;50.852;4.314;2022-07-22T09:42:04;24.90;53.10
14415;DHT22;7307;50.852;4.314;2022-07-22T09:44:31;24.90;52.50
14415;DHT22;7307;50.852;4.314;2022-07-22T09:46:57;24.90;52.50
14415;DHT22;7307;50.852;4.314;2022-07-22T09:49:37;24.90;52.50
14415;DHT22;7307;50.852;4.314;2022-07-22T09:52:05;24.90;52.50
14415;DHT22;7307;50.852;4.314;2022-07-22T09:54:31;24.90;52.50
14415;DHT22;7307;50.852;4.314;2022-07-22T09:56:58;24.90;52.60
14415;DHT22;7307;50.852;4.314;2022-07-22T09:59:23;24.90;52.50
14415;DHT22;7307;50.852;4.314;2022-07-22T10:01:52;24.90;52.50
14415;DHT22;7307;50.852;4.314;2022-07-22T10:04:20;25.00;52.50
14415;DHT22;7307;50.852;4.314;2022-07-22T10:06:47;25.00;52.60
14415;DHT22;7307;50.852;4.314;2022-07-22T10:09:17;25.00;52.50
14415;DHT22;7307;50.852;4.314;2022-07-22T10:11:43;25.00;52.50
14415;DHT22;7307;50.852;4.314;2022-07-22T10:14:14;25.00;52.50
14415;DHT22;7307;50.852;4.314;2022-07-22T10:16:40;25.00;52.60
14415;DHT22;7307;50.852;4.314;2022-07-22T10:19:06;25.00;52.60
14415;DHT22;7307;50.852;4.314;2022-07-22T10:21:34;25.00;52.60
14415;DHT22;7307;50.852;4.314;2022-07-22T10:24:08;25.00;52.60
14415;DHT22;7307;50.852;4.314;2022-07-22T10:26:50;25.10;52.70
14415;DHT22;7307;50.852;4.314;2022-07-22T10:29:39;25.10;52.40
14415;DHT22;7307;50.852;4.314;2022-07-22T10:40:15;25.10;51.50
14415;DHT22;7307;50.852;4.314;2022-07-22T10:45:24;25.10;51.80
14415;DHT22;7307;50.852;4.314;2022-07-22T10:48:02;25.10;51.90
14415;DHT22;7307;50.852;4.314;2022-07-22T10:53:07;25.10;52.00
14415;DHT22;7307;50.852;4.314;2022-07-22T10:55:34;25.10;52.10
14415;DHT22;7307;50.852;4.314;2022-07-22T10:58:00;25.10;52.10
14415;DHT22;7307;50.852;4.314;2022-07-22T11:00:26;25.10;52.10
14415;DHT22;7307;50.852;4.314;2022-07-22T11:02:52;25.10;52.10
14415;DHT22;7307;50.852;4.314;2022-07-22T11:05:27;25.10;52.10
14415;DHT22;7307;50.852;4.314;2022-07-22T11:07:55;25.10;52.80
14415;DHT22;7307;50.852;4.314;2022-07-22T11:10:21;25.10;52.10
14415;DHT22;7307;50.852;4.314;2022-07-22T11:12:48;25.20;52.30
14415;DHT22;7307;50.852;4.314;2022-07-22T11:15:14;25.20;52.30
14415;DHT22;7307;50.852;4.314;2022-07-22T11:17:40;25.20;52.30
14415;DHT22;7307;50.852;4.314;2022-07-22T11:20:08;25.20;52.30
14415;DHT22;7307;50.852;4.314;2022-07-22T11:22:34;25.20;52.30
14415;DHT22;7307;50.852;4.314;2022-07-22T11:25:06;25.20;52.20
14415;DHT22;7307;50.852;4.314;2022-07-22T11:27:32;25.20;52.30
14415;DHT22;7307;50.852;4.314;2022-07-22T11:29:58;25.20;52.30
14415;DHT22;7307;50.852;4.314;2022-07-22T11:32:27;25.20;52.30
14415;DHT22;7307;50.852;4.314;2022-07-22T11:34:57;25.20;52.30
14415;DHT22;7307;50.852;4.314;2022-07-22T11:37:25;25.20;52.30
14415;DHT22;7307;50.852;4.314;2022-07-22T11:39:59;25.30;52.30
14415;DHT22;7307;50.852;4.314;2022-07-22T11:42:25;25.30;52.40
14415;DHT22;7307;50.852;4.314;2022-07-22T11:44:51;25.30;52.40
14415;DHT22;7307;50.852;4.314;2022-07-22T11:47:17;25.30;52.40
14415;DHT22;7307;50.852;4.314;2022-07-22T11:49:46;25.30;52.40
14415;DHT22;7307;50.852;4.314;2022-07-22T11:52:13;25.30;52.40
14415;DHT22;7307;50.852;4.314;2022-07-22T11:54:40;25.30;52.40
14415;DHT22;7307;50.852;4.314;2022-07-22T11:57:06;25.30;52.50
14415;DHT22;7307;50.852;4.314;2022-07-22T11:59:34;25.40;52.60
14415;DHT22;7307;50.852;4.314;2022-07-22T12:02:01;25.40;52.60
14415;DHT22;7307;50.852;4.314;2022-07-22T12:04:28;25.40;52.60
14415;DHT22;7307;50.852;4.314;2022-07-22T12:06:54;25.40;52.70
14415;DHT22;7307;50.852;4.314;2022-07-22T12:09:24;25.40;52.70
14415;DHT22;7307;50.852;4.314;2022-07-22T12:11:52;25.40;52.80
14415;DHT22;7307;50.852;4.314;2022-07-22T12:14:20;25.40;52.80
14415;DHT22;7307;50.852;4.314;2022-07-22T12:17:00;25.40;52.90
14415;DHT22;7307;50.852;4.314;2022-07-22T12:19:28;25.40;53.10
14415;DHT22;7307;50.852;4.314;2022-07-22T12:22:07;25.40;52.70
14415;DHT22;7307;50.852;4.314;2022-07-22T12:24:40;25.40;52.10
14415;DHT22;7307;50.852;4.314;2022-07-22T12:27:14;25.40;52.10
14415;DHT22;7307;50.852;4.314;2022-07-22T12:32:07;25.40;52.50
14415;DHT22;7307;50.852;4.314;2022-07-22T12:34:35;25.50;52.40
14415;DHT22;7307;50.852;4.314;2022-07-22T12:37:18;25.40;52.10
14415;DHT22;7307;50.852;4.314;2022-07-22T12:42:19;25.50;51.90
14415;DHT22;7307;50.852;4.314;2022-07-22T12:45:17;25.50;51.70
14415;DHT22;7307;50.852;4.314;2022-07-22T12:47:53;25.40;51.50
14415;DHT22;7307;50.852;4.314;2022-07-22T12:50:26;25.50;51.40
14415;DHT22;7307;50.852;4.314;2022-07-22T12:55:29;25.50;51.30
14415;DHT22;7307;50.852;4.314;2022-07-22T12:57:55;25.40;51.20
14415;DHT22;7307;50.852;4.314;2022-07-22T13:00:25;25.50;51.30
14415;DHT22;7307;50.852;4.314;2022-07-22T13:02:52;25.50;51.10
14415;DHT22;7307;50.852;4.314;2022-07-22T13:05:18;25.50;51.20
14415;DHT22;7307;50.852;4.314;2022-07-22T13:07:45;25.40;51.20
14415;DHT22;7307;50.852;4.314;2022-07-22T13:10:12;25.50;51.30
14415;DHT22;7307;50.852;4.314;2022-07-22T13:12:39;25.40;51.40
14415;DHT22;7307;50.852;4.314;2022-07-22T13:15:05;25.50;52.00
14415;DHT22;7307;50.852;4.314;2022-07-22T13:17:33;25.50;51.20
14415;DHT22;7307;50.852;4.314;2022-07-22T13:19:58;25.50;50.90
14415;DHT22;7307;50.852;4.314;2022-07-22T13:22:27;25.50;51.10
14415;DHT22;7307;50.852;4.314;2022-07-22T13:24:52;25.50;51.00
14415;DHT22;7307;50.852;4.314;2022-07-22T13:27:18;25.50;51.00
14415;DHT22;7307;50.852;4.314;2022-07-22T13:29:43;25.50;51.00
14415;DHT22;7307;50.852;4.314;2022-07-22T13:32:09;25.50;51.10
14415;DHT22;7307;50.852;4.314;2022-07-22T13:34:34;25.50;51.10
14415;DHT22;7307;50.852;4.314;2022-07-22T13:37:01;25.50;51.10
14415;DHT22;7307;50.852;4.314;2022-07-22T13:39:27;25.50;51.20
14415;DHT22;7307;50.852;4.314;2022-07-22T13:41:53;25.50;51.00
14415;DHT22;7307;50.852;4.314;2022-07-22T13:44:19;25.50;50.90
14415;DHT22;7307;50.852;4.314;2022-07-22T13:46:45;25.50;50.90
14415;DHT22;7307;50.852;4.314;2022-07-22T13:49:11;25.50;50.90
14415;DHT22;7307;50.852;4.314;2022-07-22T13:51:37;25.50;51.00
14415;DHT22;7307;50.852;4.314;2022-07-22T13:54:02;25.50;51.10
14415;DHT22;7307;50.852;4.314;2022-07-22T13:56:28;25.50;51.00
14415;DHT22;7307;50.852;4.314;2022-07-22T13:58:54;25.50;51.10
14415;DHT22;7307;50.852;4.314;2022-07-22T14:01:20;25.60;51.30
14415;DHT22;7307;50.852;4.314;2022-07-22T14:03:45;25.50;51.10
14415;DHT22;7307;50.852;4.314;2022-07-22T14:06:11;25.60;51.20
14415;DHT22;7307;50.852;4.314;2022-07-22T14:08:37;25.60;51.80
14415;DHT22;7307;50.852;4.314;2022-07-22T14:11:03;25.50;51.20
14415;DHT22;7307;50.852;4.314;2022-07-22T14:13:29;25.60;51.30
14415;DHT22;7307;50.852;4.314;2022-07-22T14:15:55;25.60;51.40
14415;DHT22;7307;50.852;4.314;2022-07-22T14:18:21;25.50;51.30
14415;DHT22;7307;50.852;4.314;2022-07-22T14:20:47;25.60;51.40
14415;DHT22;7307;50.852;4.314;2022-07-22T14:23:13;25.60;51.40
14415;DHT22;7307;50.852;4.314;2022-07-22T14:25:40;25.60;51.30
14415;DHT22;7307;50.852;4.314;2022-07-22T14:28:06;25.60;51.30
14415;DHT22;7307;50.852;4.314;2022-07-22T14:30:33;25.60;51.30
14415;DHT22;7307;50.852;4.314;2022-07-22T14:32:59;25.60;51.10
14415;DHT22;7307;50.852;4.314;2022-07-22T14:35:25;25.60;51.10
14415;DHT22;7307;50.852;4.314;2022-07-22T14:37:51;25.60;51.20
14415;DHT22;7307;50.852;4.314;2022-07-22T14:40:17;25.60;51.30
14415;DHT22;7307;50.852;4.314;2022-07-22T14:42:42;25.60;51.30
14415;DHT22;7307;50.852;4.314;2022-07-22T14:45:09;25.60;51.30
14415;DHT22;7307;50.852;4.314;2022-07-22T14:47:36;25.60;51.30
14415;DHT22;7307;50.852;4.314;2022-07-22T14:50:11;25.60;51.30
14415;DHT22;7307;50.852;4.314;2022-07-22T14:52:36;25.60;51.30
14415;DHT22;7307;50.852;4.314;2022-07-22T14:55:02;25.60;51.20
14415;DHT22;7307;50.852;4.314;2022-07-22T14:57:28;25.60;51.20
14415;DHT22;7307;50.852;4.314;2022-07-22T14:59:54;25.60;51.10
14415;DHT22;7307;50.852;4.314;2022-07-22T15:02:19;25.60;51.00
14415;DHT22;7307;50.852;4.314;2022-07-22T15:04:45;25.60;51.10
14415;DHT22;7307;50.852;4.314;2022-07-22T15:07:11;25.60;51.00
14415;DHT22;7307;50.852;4.314;2022-07-22T15:09:37;25.60;51.20
14415;DHT22;7307;50.852;4.314;2022-07-22T15:12:03;25.60;51.00
14415;DHT22;7307;50.852;4.314;2022-07-22T15:14:28;25.60;51.10
14415;DHT22;7307;50.852;4.314;2022-07-22T15:16:54;25.60;51.20
14415;DHT22;7307;50.852;4.314;2022-07-22T15:19:19;25.60;51.30
14415;DHT22;7307;50.852;4.314;2022-07-22T15:21:45;25.70;51.20
14415;DHT22;7307;50.852;4.314;2022-07-22T15:24:13;25.70;51.20
14415;DHT22;7307;50.852;4.314;2022-07-22T15:26:38;25.70;51.40
14415;DHT22;7307;50.852;4.314;2022-07-22T15:29:04;25.70;51.20
14415;DHT22;7307;50.852;4.314;2022-07-22T15:31:30;25.60;51.20
14415;DHT22;7307;50.852;4.314;2022-07-22T15:33:57;25.70;51.30
14415;DHT22;7307;50.852;4.314;2022-07-22T15:36:23;25.70;51.50
14415;DHT22;7307;50.852;4.314;2022-07-22T15:38:50;25.70;51.70
14415;DHT22;7307;50.852;4.314;2022-07-22T15:41:16;25.70;51.40
14415;DHT22;7307;50.852;4.314;2022-07-22T15:43:42;25.70;51.40
14415;DHT22;7307;50.852;4.314;2022-07-22T15:46:08;25.70;51.20
14415;DHT22;7307;50.852;4.314;2022-07-22T15:48:34;25.70;51.70
14415;DHT22;7307;50.852;4.314;2022-07-22T15:50:59;25.70;51.10
14415;DHT22;7307;50.852;4.314;2022-07-22T15:53:25;25.70;51.10
14415;DHT22;7307;50.852;4.314;2022-07-22T15:55:50;25.80;51.10
14415;DHT22;7307;50.852;4.314;2022-07-22T15:58:16;25.70;51.00
14415;DHT22;7307;50.852;4.314;2022-07-22T16:01:01;25.80;51.00
14415;DHT22;7307;50.852;4.314;2022-07-22T16:03:27;25.80;51.00
14415;DHT22;7307;50.852;4.314;2022-07-22T16:05:53;25.80;51.30